sensor_id;sensor_type;location;lat;lon;timestamp;P1;durP1;ratioP1;P2;durP2;ratioP2
78005;SDS011;67211;42.146;24.756;2023-06-10T00:00:13;5.82;;;4.65;;
78005;SDS011;67211;42.146;24.756;2023-06-10T00:02:40;5.82;;;4.57;;
78005;SDS011;67211;42.146;24.756;2023-06-10T00:05:06;7.68;;;4.47;;
78005;SDS011;67211;42.146;24.756;2023-06-10T00:07:33;6.65;;;4.88;;
78005;SDS011;67211;42.146;24.756;2023-06-10T00:10:03;5.90;;;4.95;;
78005;SDS011;67211;42.146;24.756;2023-06-10T00:12:30;8.75;;;5.22;;
78005;SDS011;67211;42.146;24.756;2023-06-10T00:14:56;6.28;;;5.03;;
78005;SDS011;67211;42.146;24.756;2023-06-10T00:17:21;7.10;;;5.25;;
78005;SDS011;67211;42.146;24.756;2023-06-10T00:19:47;6.00;;;5.13;;
78005;SDS011;67211;42.146;24.756;2023-06-10T00:22:15;6.65;;;5.50;;
78005;SDS011;67211;42.146;24.756;2023-06-10T00:24:41;7.32;;;4.93;;
78005;SDS011;67211;42.146;24.756;2023-06-10T00:27:07;7.28;;;4.50;;
78005;SDS011;67211;42.146;24.756;2023-06-10T00:29:32;7.13;;;4.72;;
78005;SDS011;67211;42.146;24.756;2023-06-10T00:31:58;7.97;;;4.68;;
78005;SDS011;67211;42.146;24.756;2023-06-10T00:34:24;5.53;;;4.82;;
78005;SDS011;67211;42.146;24.756;2023-06-10T00:36:49;6.50;;;4.72;;
78005;SDS011;67211;42.146;24.756;2023-06-10T00:39:15;6.80;;;5.13;;
78005;SDS011;67211;42.146;24.756;2023-06-10T00:41:41;8.77;;;4.90;;
78005;SDS011;67211;42.146;24.756;2023-06-10T00:44:07;7.45;;;5.57;;
78005;SDS011;67211;42.146;24.756;2023-06-10T00:46:32;8.07;;;5.70;;
78005;SDS011;67211;42.146;24.756;2023-06-10T00:48:59;9.68;;;5.55;;
78005;SDS011;67211;42.146;24.756;2023-06-10T00:51:25;7.35;;;5.10;;
78005;SDS011;67211;42.146;24.756;2023-06-10T00:53:51;9.45;;;5.45;;
78005;SDS011;67211;42.146;24.756;2023-06-10T00:56:17;6.72;;;4.63;;
78005;SDS011;67211;42.146;24.756;2023-06-10T00:58:43;9.32;;;5.32;;
78005;SDS011;67211;42.146;24.756;2023-06-10T01:01:08;7.57;;;5.18;;
78005;SDS011;67211;42.146;24.756;2023-06-10T01:03:35;6.47;;;5.10;;
78005;SDS011;67211;42.146;24.756;2023-06-10T01:11:46;8.50;;;5.10;;
78005;SDS011;67211;42.146;24.756;2023-06-10T01:14:13;7.80;;;5.10;;
78005;SDS011;67211;42.146;24.756;2023-06-10T01:16:39;7.18;;;4.82;;
78005;SDS011;67211;42.146;24.756;2023-06-10T01:19:05;7.97;;;5.20;;
78005;SDS011;67211;42.146;24.756;2023-06-10T01:21:32;6.82;;;4.97;;
78005;SDS011;67211;42.146;24.756;2023-06-10T01:23:58;9.80;;;5.38;;
78005;SDS011;67211;42.146;24.756;2023-06-10T01:26:28;10.00;;;5.70;;
78005;SDS011;67211;42.146;24.756;2023-06-10T01:31:36;7.32;;;5.60;;
78005;SDS011;67211;42.146;24.756;2023-06-10T01:34:08;8.70;;;4.95;;
78005;SDS011;67211;42.146;24.756;2023-06-10T01:36:35;7.05;;;5.03;;
78005;SDS011;67211;42.146;24.756;2023-06-10T01:39:02;6.28;;;4.68;;
78005;SDS011;67211;42.146;24.756;2023-06-10T01:41:27;7.05;;;4.85;;
78005;SDS011;67211;42.146;24.756;2023-06-10T01:43:54;6.35;;;4.65;;
78005;SDS011;67211;42.146;24.756;2023-06-10T01:46:19;6.85;;;4.95;;
78005;SDS011;67211;42.146;24.756;2023-06-10T01:48:46;6.40;;;5.30;;
78005;SDS011;67211;42.146;24.756;2023-06-10T01:51:11;7.60;;;5.13;;
78005;SDS011;67211;42.146;24.756;2023-06-10T01:53:37;6.30;;;4.88;;
78005;SDS011;67211;42.146;24.756;2023-06-10T01:56:02;9.30;;;5.28;;
78005;SDS011;67211;42.146;24.756;2023-06-10T01:58:28;8.02;;;5.53;;
78005;SDS011;67211;42.146;24.756;2023-06-10T02:00:53;7.78;;;5.55;;
78005;SDS011;67211;42.146;24.756;2023-06-10T02:03:19;8.70;;;4.57;;
78005;SDS011;67211;42.146;24.756;2023-06-10T02:05:44;6.53;;;4.90;;
78005;SDS011;67211;42.146;24.756;2023-06-10T02:08:10;8.20;;;5.68;;
78005;SDS011;67211;42.146;24.756;2023-06-10T02:10:35;6.82;;;5.32;;
78005;SDS011;67211;42.146;24.756;2023-06-10T02:13:00;7.05;;;4.53;;
78005;SDS011;67211;42.146;24.756;2023-06-10T02:15:26;7.35;;;5.20;;
78005;SDS011;67211;42.146;24.756;2023-06-10T02:17:51;7.85;;;5.00;;
78005;SDS011;67211;42.146;24.756;2023-06-10T02:20:17;6.60;;;5.07;;
78005;SDS011;67211;42.146;24.756;2023-06-10T02:22:42;7.10;;;4.93;;
78005;SDS011;67211;42.146;24.756;2023-06-10T02:25:08;7.50;;;4.90;;
78005;SDS011;67211;42.146;24.756;2023-06-10T02:27:34;6.57;;;5.20;;
78005;SDS011;67211;42.146;24.756;2023-06-10T02:29:59;7.18;;;5.60;;
78005;SDS011;67211;42.146;24.756;2023-06-10T02:32:25;7.85;;;5.00;;
78005;SDS011;67211;42.146;24.756;2023-06-10T02:34:51;8.02;;;4.57;;
78005;SDS011;67211;42.146;24.756;2023-06-10T02:37:16;8.13;;;5.35;;
78005;SDS011;67211;42.146;24.756;2023-06-10T02:39:42;6.97;;;5.10;;
78005;SDS011;67211;42.146;24.756;2023-06-10T02:42:07;6.05;;;4.65;;
78005;SDS011;67211;42.146;24.756;2023-06-10T02:44:33;6.22;;;4.78;;
78005;SDS011;67211;42.146;24.756;2023-06-10T02:46:58;7.80;;;5.15;;
78005;SDS011;67211;42.146;24.756;2023-06-10T02:49:24;8.25;;;5.28;;
78005;SDS011;67211;42.146;24.756;2023-06-10T02:51:52;7.75;;;5.35;;
78005;SDS011;67211;42.146;24.756;2023-06-10T02:54:19;7.30;;;5.43;;
78005;SDS011;67211;42.146;24.756;2023-06-10T02:56:44;8.07;;;4.85;;
78005;SDS011;67211;42.146;24.756;2023-06-10T02:59:10;6.88;;;4.88;;
78005;SDS011;67211;42.146;24.756;2023-06-10T03:01:36;8.43;;;4.53;;
78005;SDS011;67211;42.146;24.756;2023-06-10T03:04:02;7.63;;;5.20;;
78005;SDS011;67211;42.146;24.756;2023-06-10T03:06:29;6.28;;;5.25;;
78005;SDS011;67211;42.146;24.756;2023-06-10T03:08:54;8.70;;;5.30;;
78005;SDS011;67211;42.146;24.756;2023-06-10T03:11:20;6.75;;;5.47;;
78005;SDS011;67211;42.146;24.756;2023-06-10T03:13:45;9.23;;;5.40;;
78005;SDS011;67211;42.146;24.756;2023-06-10T03:16:11;8.00;;;5.25;;
78005;SDS011;67211;42.146;24.756;2023-06-10T03:18:37;7.63;;;5.07;;
78005;SDS011;67211;42.146;24.756;2023-06-10T03:21:02;7.65;;;5.60;;
78005;SDS011;67211;42.146;24.756;2023-06-10T03:23:28;7.13;;;5.53;;
78005;SDS011;67211;42.146;24.756;2023-06-10T03:25:55;8.52;;;5.18;;
78005;SDS011;67211;42.146;24.756;2023-06-10T03:28:20;7.93;;;5.07;;
78005;SDS011;67211;42.146;24.756;2023-06-10T03:30:46;7.75;;;5.25;;
78005;SDS011;67211;42.146;24.756;2023-06-10T03:33:12;11.25;;;5.15;;
78005;SDS011;67211;42.146;24.756;2023-06-10T03:35:37;8.98;;;5.30;;
78005;SDS011;67211;42.146;24.756;2023-06-10T03:38:03;8.27;;;4.80;;
78005;SDS011;67211;42.146;24.756;2023-06-10T03:40:28;7.53;;;5.07;;
78005;SDS011;67211;42.146;24.756;2023-06-10T03:42:56;7.22;;;5.63;;
78005;SDS011;67211;42.146;24.756;2023-06-10T03:45:21;8.00;;;5.85;;
78005;SDS011;67211;42.146;24.756;2023-06-10T03:47:47;8.00;;;4.93;;
78005;SDS011;67211;42.146;24.756;2023-06-10T03:50:13;7.82;;;5.25;;
78005;SDS011;67211;42.146;24.756;2023-06-10T03:52:38;6.70;;;5.25;;
78005;SDS011;67211;42.146;24.756;2023-06-10T03:55:05;6.95;;;5.65;;
78005;SDS011;67211;42.146;24.756;2023-06-10T03:57:31;5.45;;;4.63;;
78005;SDS011;67211;42.146;24.756;2023-06-10T03:59:56;7.75;;;5.63;;
78005;SDS011;67211;42.146;24.756;2023-06-10T04:02:22;11.40;;;5.75;;
78005;SDS011;67211;42.146;24.756;2023-06-10T04:04:47;9.75;;;5.45;;
78005;SDS011;67211;42.146;24.756;2023-06-10T04:07:13;10.52;;;5.63;;
78005;SDS011;67211;42.146;24.756;2023-06-10T04:09:39;7.63;;;5.43;;
78005;SDS011;67211;42.146;24.756;2023-06-10T04:12:04;10.18;;;6.32;;
78005;SDS011;67211;42.146;24.756;2023-06-10T04:14:33;7.65;;;5.05;;
78005;SDS011;67211;42.146;24.756;2023-06-10T04:16:59;10.73;;;6.20;;
78005;SDS011;67211;42.146;24.756;2023-06-10T04:19:24;7.57;;;5.93;;
78005;SDS011;67211;42.146;24.756;2023-06-10T04:21:50;7.57;;;5.80;;
78005;SDS011;67211;42.146;24.756;2023-06-10T04:24:16;10.50;;;6.60;;
78005;SDS011;67211;42.146;24.756;2023-06-10T04:26:44;10.05;;;6.05;;
78005;SDS011;67211;42.146;24.756;2023-06-10T04:29:10;8.18;;;6.07;;
78005;SDS011;67211;42.146;24.756;2023-06-10T04:31:35;9.75;;;6.45;;
78005;SDS011;67211;42.146;24.756;2023-06-10T04:34:02;9.07;;;6.05;;
78005;SDS011;67211;42.146;24.756;2023-06-10T04:36:28;8.35;;;6.10;;
78005;SDS011;67211;42.146;24.756;2023-06-10T04:38:55;9.40;;;6.43;;
78005;SDS011;67211;42.146;24.756;2023-06-10T04:41:20;11.75;;;6.97;;
78005;SDS011;67211;42.146;24.756;2023-06-10T04:43:47;9.82;;;5.88;;
78005;SDS011;67211;42.146;24.756;2023-06-10T04:46:12;12.80;;;6.35;;
78005;SDS011;67211;42.146;24.756;2023-06-10T04:48:38;8.95;;;6.22;;
78005;SDS011;67211;42.146;24.756;2023-06-10T04:51:04;10.70;;;6.93;;
78005;SDS011;67211;42.146;24.756;2023-06-10T04:53:30;7.47;;;6.18;;
78005;SDS011;67211;42.146;24.756;2023-06-10T04:55:56;10.00;;;6.95;;
78005;SDS011;67211;42.146;24.756;2023-06-10T04:58:22;9.48;;;6.50;;
78005;SDS011;67211;42.146;24.756;2023-06-10T05:00:48;9.50;;;6.68;;
78005;SDS011;67211;42.146;24.756;2023-06-10T05:03:13;8.90;;;6.90;;
78005;SDS011;67211;42.146;24.756;2023-06-10T05:05:39;10.38;;;6.82;;
78005;SDS011;67211;42.146;24.756;2023-06-10T05:08:04;11.32;;;7.07;;
78005;SDS011;67211;42.146;24.756;2023-06-10T05:10:29;9.48;;;7.18;;
78005;SDS011;67211;42.146;24.756;2023-06-10T05:12:56;11.55;;;6.57;;
78005;SDS011;67211;42.146;24.756;2023-06-10T05:15:23;10.63;;;6.68;;
78005;SDS011;67211;42.146;24.756;2023-06-10T05:17:48;13.02;;;7.15;;
78005;SDS011;67211;42.146;24.756;2023-06-10T05:20:15;9.23;;;7.63;;
78005;SDS011;67211;42.146;24.756;2023-06-10T05:22:40;9.27;;;6.90;;
78005;SDS011;67211;42.146;24.756;2023-06-10T05:25:06;8.52;;;6.40;;
78005;SDS011;67211;42.146;24.756;2023-06-10T05:27:32;9.50;;;6.35;;
78005;SDS011;67211;42.146;24.756;2023-06-10T05:29:57;10.15;;;6.60;;
78005;SDS011;67211;42.146;24.756;2023-06-10T05:32:23;9.90;;;6.70;;
78005;SDS011;67211;42.146;24.756;2023-06-10T05:34:48;10.48;;;7.38;;
78005;SDS011;67211;42.146;24.756;2023-06-10T05:37:14;8.50;;;6.88;;
78005;SDS011;67211;42.146;24.756;2023-06-10T05:39:39;10.35;;;6.43;;
78005;SDS011;67211;42.146;24.756;2023-06-10T05:42:06;10.65;;;6.32;;
78005;SDS011;67211;42.146;24.756;2023-06-10T05:44:32;9.95;;;6.65;;
78005;SDS011;67211;42.146;24.756;2023-06-10T05:46:57;12.15;;;7.60;;
78005;SDS011;67211;42.146;24.756;2023-06-10T05:49:23;9.55;;;7.57;;
78005;SDS011;67211;42.146;24.756;2023-06-10T05:51:48;10.10;;;6.78;;
78005;SDS011;67211;42.146;24.756;2023-06-10T05:54:14;10.02;;;7.65;;
78005;SDS011;67211;42.146;24.756;2023-06-10T05:56:39;12.15;;;7.22;;
78005;SDS011;67211;42.146;24.756;2023-06-10T05:59:04;12.98;;;7.18;;
78005;SDS011;67211;42.146;24.756;2023-06-10T06:01:30;11.10;;;6.97;;
78005;SDS011;67211;42.146;24.756;2023-06-10T06:03:55;10.73;;;6.28;;
78005;SDS011;67211;42.146;24.756;2023-06-10T06:06:20;7.78;;;5.70;;
78005;SDS011;67211;42.146;24.756;2023-06-10T06:08:46;7.57;;;5.60;;
78005;SDS011;67211;42.146;24.756;2023-06-10T06:11:11;8.45;;;5.80;;
78005;SDS011;67211;42.146;24.756;2023-06-10T06:13:37;7.65;;;6.03;;
78005;SDS011;67211;42.146;24.756;2023-06-10T06:16:02;8.48;;;6.03;;
78005;SDS011;67211;42.146;24.756;2023-06-10T06:18:28;12.55;;;6.28;;
78005;SDS011;67211;42.146;24.756;2023-06-10T06:20:53;7.88;;;6.13;;
78005;SDS011;67211;42.146;24.756;2023-06-10T06:23:19;8.07;;;5.50;;
78005;SDS011;67211;42.146;24.756;2023-06-10T06:25:44;13.43;;;6.95;;
78005;SDS011;67211;42.146;24.756;2023-06-10T06:28:09;9.02;;;6.13;;
78005;SDS011;67211;42.146;24.756;2023-06-10T06:30:35;6.93;;;5.80;;
78005;SDS011;67211;42.146;24.756;2023-06-10T06:33:01;12.23;;;6.50;;
78005;SDS011;67211;42.146;24.756;2023-06-10T06:35:27;7.60;;;6.15;;
78005;SDS011;67211;42.146;24.756;2023-06-10T06:37:52;8.15;;;5.97;;
78005;SDS011;67211;42.146;24.756;2023-06-10T06:40:17;8.25;;;6.57;;
78005;SDS011;67211;42.146;24.756;2023-06-10T06:42:43;8.90;;;6.20;;
78005;SDS011;67211;42.146;24.756;2023-06-10T06:45:08;9.80;;;6.57;;
78005;SDS011;67211;42.146;24.756;2023-06-10T06:47:34;10.27;;;5.72;;
78005;SDS011;67211;42.146;24.756;2023-06-10T06:49:59;9.90;;;5.75;;
78005;SDS011;67211;42.146;24.756;2023-06-10T06:52:25;8.48;;;6.32;;
78005;SDS011;67211;42.146;24.756;2023-06-10T06:54:51;9.07;;;5.68;;
78005;SDS011;67211;42.146;24.756;2023-06-10T06:57:16;8.95;;;6.22;;
78005;SDS011;67211;42.146;24.756;2023-06-10T06:59:41;11.32;;;5.88;;
78005;SDS011;67211;42.146;24.756;2023-06-10T07:02:07;8.68;;;6.00;;
78005;SDS011;67211;42.146;24.756;2023-06-10T07:04:32;9.35;;;5.72;;
78005;SDS011;67211;42.146;24.756;2023-06-10T07:06:57;9.18;;;6.03;;
78005;SDS011;67211;42.146;24.756;2023-06-10T07:09:23;8.95;;;6.13;;
78005;SDS011;67211;42.146;24.756;2023-06-10T07:11:48;7.88;;;6.22;;
78005;SDS011;67211;42.146;24.756;2023-06-10T07:14:14;11.77;;;7.45;;
78005;SDS011;67211;42.146;24.756;2023-06-10T07:16:39;10.55;;;6.72;;
78005;SDS011;67211;42.146;24.756;2023-06-10T07:19:05;10.20;;;6.90;;
78005;SDS011;67211;42.146;24.756;2023-06-10T07:21:30;10.68;;;7.30;;
78005;SDS011;67211;42.146;24.756;2023-06-10T07:23:57;9.05;;;6.22;;
78005;SDS011;67211;42.146;24.756;2023-06-10T07:26:22;9.32;;;6.40;;
78005;SDS011;67211;42.146;24.756;2023-06-10T07:28:48;10.80;;;6.63;;
78005;SDS011;67211;42.146;24.756;2023-06-10T07:31:13;11.07;;;5.95;;
78005;SDS011;67211;42.146;24.756;2023-06-10T07:33:38;9.77;;;6.70;;
78005;SDS011;67211;42.146;24.756;2023-06-10T07:36:04;7.47;;;5.60;;
78005;SDS011;67211;42.146;24.756;2023-06-10T07:38:31;8.60;;;6.00;;
78005;SDS011;67211;42.146;24.756;2023-06-10T07:40:56;8.18;;;5.82;;
78005;SDS011;67211;42.146;24.756;2023-06-10T07:43:22;8.80;;;5.65;;
78005;SDS011;67211;42.146;24.756;2023-06-10T07:45:47;6.57;;;4.78;;
78005;SDS011;67211;42.146;24.756;2023-06-10T07:48:13;8.60;;;5.20;;
78005;SDS011;67211;42.146;24.756;2023-06-10T07:50:38;12.48;;;5.53;;
78005;SDS011;67211;42.146;24.756;2023-06-10T07:53:05;9.43;;;5.45;;
78005;SDS011;67211;42.146;24.756;2023-06-10T07:55:30;7.30;;;5.15;;
78005;SDS011;67211;42.146;24.756;2023-06-10T07:57:56;8.57;;;5.45;;
78005;SDS011;67211;42.146;24.756;2023-06-10T08:00:21;8.05;;;5.18;;
78005;SDS011;67211;42.146;24.756;2023-06-10T08:02:47;7.50;;;4.78;;
78005;SDS011;67211;42.146;24.756;2023-06-10T08:05:12;6.43;;;4.50;;
78005;SDS011;67211;42.146;24.756;2023-06-10T08:07:38;11.10;;;5.60;;
78005;SDS011;67211;42.146;24.756;2023-06-10T08:10:05;8.98;;;5.13;;
78005;SDS011;67211;42.146;24.756;2023-06-10T08:12:31;8.57;;;4.93;;
78005;SDS011;67211;42.146;24.756;2023-06-10T08:14:57;7.10;;;5.15;;
78005;SDS011;67211;42.146;24.756;2023-06-10T08:17:23;7.63;;;5.10;;
78005;SDS011;67211;42.146;24.756;2023-06-10T08:19:49;8.32;;;4.70;;
78005;SDS011;67211;42.146;24.756;2023-06-10T08:22:14;8.18;;;5.00;;
78005;SDS011;67211;42.146;24.756;2023-06-10T08:24:40;6.65;;;4.60;;
78005;SDS011;67211;42.146;24.756;2023-06-10T08:27:05;5.80;;;4.47;;
78005;SDS011;67211;42.146;24.756;2023-06-10T08:29:31;7.65;;;4.32;;
78005;SDS011;67211;42.146;24.756;2023-06-10T08:31:57;7.78;;;4.38;;
78005;SDS011;67211;42.146;24.756;2023-06-10T08:34:23;5.47;;;4.13;;
78005;SDS011;67211;42.146;24.756;2023-06-10T08:36:48;5.90;;;4.47;;
78005;SDS011;67211;42.146;24.756;2023-06-10T08:39:18;7.38;;;5.18;;
78005;SDS011;67211;42.146;24.756;2023-06-10T08:41:46;8.50;;;4.60;;
78005;SDS011;67211;42.146;24.756;2023-06-10T08:44:22;7.75;;;4.45;;
78005;SDS011;67211;42.146;24.756;2023-06-10T08:46:53;5.43;;;4.28;;
78005;SDS011;67211;42.146;24.756;2023-06-10T08:49:21;6.32;;;4.38;;
78005;SDS011;67211;42.146;24.756;2023-06-10T08:51:51;7.75;;;4.57;;
78005;SDS011;67211;42.146;24.756;2023-06-10T08:54:21;9.50;;;4.57;;
78005;SDS011;67211;42.146;24.756;2023-06-10T08:56:50;7.57;;;3.75;;
78005;SDS011;67211;42.146;24.756;2023-06-10T08:59:16;7.57;;;4.60;;
78005;SDS011;67211;42.146;24.756;2023-06-10T09:01:42;5.47;;;4.10;;
78005;SDS011;67211;42.146;24.756;2023-06-10T09:04:08;5.97;;;4.13;;
78005;SDS011;67211;42.146;24.756;2023-06-10T09:06:34;6.80;;;4.43;;
78005;SDS011;67211;42.146;24.756;2023-06-10T09:09:00;9.70;;;4.40;;
78005;SDS011;67211;42.146;24.756;2023-06-10T09:11:26;5.55;;;4.05;;
78005;SDS011;67211;42.146;24.756;2023-06-10T09:13:52;6.05;;;3.67;;
78005;SDS011;67211;42.146;24.756;2023-06-10T09:16:17;5.47;;;3.50;;
78005;SDS011;67211;42.146;24.756;2023-06-10T09:18:43;4.45;;;3.53;;
78005;SDS011;67211;42.146;24.756;2023-06-10T09:21:08;4.95;;;3.35;;
78005;SDS011;67211;42.146;24.756;2023-06-10T09:23:34;5.10;;;3.25;;
78005;SDS011;67211;42.146;24.756;2023-06-10T09:26:00;6.13;;;3.33;;
78005;SDS011;67211;42.146;24.756;2023-06-10T09:28:26;5.43;;;3.53;;
78005;SDS011;67211;42.146;24.756;2023-06-10T09:31:02;4.60;;;3.22;;
78005;SDS011;67211;42.146;24.756;2023-06-10T09:33:32;5.55;;;3.28;;
78005;SDS011;67211;42.146;24.756;2023-06-10T09:35:57;5.90;;;3.47;;
78005;SDS011;67211;42.146;24.756;2023-06-10T09:38:29;5.25;;;3.53;;
78005;SDS011;67211;42.146;24.756;2023-06-10T09:40:56;10.55;;;4.13;;
78005;SDS011;67211;42.146;24.756;2023-06-10T09:43:21;6.70;;;3.85;;
78005;SDS011;67211;42.146;24.756;2023-06-10T09:45:50;4.85;;;3.45;;
78005;SDS011;67211;42.146;24.756;2023-06-10T09:48:18;5.90;;;3.50;;
78005;SDS011;67211;42.146;24.756;2023-06-10T09:50:43;6.03;;;3.72;;
78005;SDS011;67211;42.146;24.756;2023-06-10T09:53:10;9.70;;;4.25;;
78005;SDS011;67211;42.146;24.756;2023-06-10T09:55:39;8.32;;;4.25;;
78005;SDS011;67211;42.146;24.756;2023-06-10T09:58:06;6.85;;;3.70;;
78005;SDS011;67211;42.146;24.756;2023-06-10T10:00:32;10.68;;;4.22;;
78005;SDS011;67211;42.146;24.756;2023-06-10T10:02:58;7.03;;;4.25;;
78005;SDS011;67211;42.146;24.756;2023-06-10T10:05:24;7.60;;;4.07;;
78005;SDS011;67211;42.146;24.756;2023-06-10T10:07:50;7.05;;;4.07;;
78005;SDS011;67211;42.146;24.756;2023-06-10T10:10:17;6.70;;;3.95;;
78005;SDS011;67211;42.146;24.756;2023-06-10T10:12:44;5.50;;;4.00;;
78005;SDS011;67211;42.146;24.756;2023-06-10T10:15:11;6.38;;;4.45;;
78005;SDS011;67211;42.146;24.756;2023-06-10T10:17:37;13.32;;;4.82;;
78005;SDS011;67211;42.146;24.756;2023-06-10T10:20:05;7.68;;;4.20;;
78005;SDS011;67211;42.146;24.756;2023-06-10T10:22:37;11.52;;;5.00;;
78005;SDS011;67211;42.146;24.756;2023-06-10T10:25:06;6.25;;;4.07;;
78005;SDS011;67211;42.146;24.756;2023-06-10T10:27:36;5.57;;;4.25;;
78005;SDS011;67211;42.146;24.756;2023-06-10T10:30:17;7.97;;;4.07;;
78005;SDS011;67211;42.146;24.756;2023-06-10T10:32:53;6.28;;;4.28;;
78005;SDS011;67211;42.146;24.756;2023-06-10T10:35:38;6.63;;;4.78;;
78005;SDS011;67211;42.146;24.756;2023-06-10T10:38:04;6.78;;;4.03;;
78005;SDS011;67211;42.146;24.756;2023-06-10T10:40:30;5.93;;;4.35;;
78005;SDS011;67211;42.146;24.756;2023-06-10T10:42:57;7.43;;;4.20;;
78005;SDS011;67211;42.146;24.756;2023-06-10T10:45:23;8.82;;;4.45;;
78005;SDS011;67211;42.146;24.756;2023-06-10T10:47:51;6.97;;;4.35;;
78005;SDS011;67211;42.146;24.756;2023-06-10T10:50:19;13.07;;;4.70;;
78005;SDS011;67211;42.146;24.756;2023-06-10T10:53:03;5.38;;;4.15;;
78005;SDS011;67211;42.146;24.756;2023-06-10T10:55:30;7.28;;;4.38;;
78005;SDS011;67211;42.146;24.756;2023-06-10T10:57:56;8.80;;;4.97;;
78005;SDS011;67211;42.146;24.756;2023-06-10T11:00:27;7.32;;;4.40;;
78005;SDS011;67211;42.146;24.756;2023-06-10T11:02:57;6.35;;;4.10;;
78005;SDS011;67211;42.146;24.756;2023-06-10T11:08:14;8.27;;;4.40;;
78005;SDS011;67211;42.146;24.756;2023-06-10T11:10:59;6.20;;;3.92;;
78005;SDS011;67211;42.146;24.756;2023-06-10T11:13:25;7.60;;;4.18;;
78005;SDS011;67211;42.146;24.756;2023-06-10T11:15:51;7.80;;;4.18;;
78005;SDS011;67211;42.146;24.756;2023-06-10T11:18:24;6.53;;;4.20;;
78005;SDS011;67211;42.146;24.756;2023-06-10T11:20:51;6.18;;;3.65;;
78005;SDS011;67211;42.146;24.756;2023-06-10T11:23:24;6.55;;;3.67;;
78005;SDS011;67211;42.146;24.756;2023-06-10T11:33:47;6.03;;;3.60;;
78005;SDS011;67211;42.146;24.756;2023-06-10T11:36:14;5.78;;;3.20;;
78005;SDS011;67211;42.146;24.756;2023-06-10T11:38:42;5.45;;;3.50;;
78005;SDS011;67211;42.146;24.756;2023-06-10T11:41:08;4.22;;;2.95;;
78005;SDS011;67211;42.146;24.756;2023-06-10T11:43:34;8.27;;;3.30;;
78005;SDS011;67211;42.146;24.756;2023-06-10T11:45:59;7.70;;;3.92;;
78005;SDS011;67211;42.146;24.756;2023-06-10T11:48:25;7.07;;;3.55;;
78005;SDS011;67211;42.146;24.756;2023-06-10T11:50:53;6.80;;;3.50;;
78005;SDS011;67211;42.146;24.756;2023-06-10T11:53:18;7.13;;;3.58;;
78005;SDS011;67211;42.146;24.756;2023-06-10T11:55:45;4.63;;;3.22;;
78005;SDS011;67211;42.146;24.756;2023-06-10T12:00:50;6.53;;;3.40;;
78005;SDS011;67211;42.146;24.756;2023-06-10T12:03:18;5.93;;;3.92;;
78005;SDS011;67211;42.146;24.756;2023-06-10T12:06:00;6.05;;;4.03;;
78005;SDS011;67211;42.146;24.756;2023-06-10T12:08:30;7.90;;;3.83;;
78005;SDS011;67211;42.146;24.756;2023-06-10T12:10:56;4.57;;;3.40;;
78005;SDS011;67211;42.146;24.756;2023-06-10T12:13:23;5.40;;;3.70;;
78005;SDS011;67211;42.146;24.756;2023-06-10T12:15:51;7.68;;;3.90;;
78005;SDS011;67211;42.146;24.756;2023-06-10T12:18:20;6.28;;;3.65;;
78005;SDS011;67211;42.146;24.756;2023-06-10T12:20:49;5.53;;;3.40;;
78005;SDS011;67211;42.146;24.756;2023-06-10T12:23:18;10.55;;;3.45;;
78005;SDS011;67211;42.146;24.756;2023-06-10T12:25:54;5.90;;;4.15;;
78005;SDS011;67211;42.146;24.756;2023-06-10T12:28:24;6.60;;;3.63;;
78005;SDS011;67211;42.146;24.756;2023-06-10T12:30:50;6.32;;;3.58;;
78005;SDS011;67211;42.146;24.756;2023-06-10T12:33:19;5.22;;;3.67;;
78005;SDS011;67211;42.146;24.756;2023-06-10T12:35:52;10.50;;;4.80;;
78005;SDS011;67211;42.146;24.756;2023-06-10T12:38:21;17.65;;;5.18;;
78005;SDS011;67211;42.146;24.756;2023-06-10T12:40:49;5.63;;;3.95;;
78005;SDS011;67211;42.146;24.756;2023-06-10T12:43:19;7.00;;;4.35;;
78005;SDS011;67211;42.146;24.756;2023-06-10T12:45:45;7.00;;;4.20;;
78005;SDS011;67211;42.146;24.756;2023-06-10T12:50:41;9.27;;;4.53;;
78005;SDS011;67211;42.146;24.756;2023-06-10T12:53:07;7.03;;;4.38;;
78005;SDS011;67211;42.146;24.756;2023-06-10T12:55:33;7.65;;;4.97;;
78005;SDS011;67211;42.146;24.756;2023-06-10T12:57:59;6.50;;;4.65;;
78005;SDS011;67211;42.146;24.756;2023-06-10T13:00:25;8.20;;;4.35;;
78005;SDS011;67211;42.146;24.756;2023-06-10T13:02:53;5.68;;;3.88;;
78005;SDS011;67211;42.146;24.756;2023-06-10T13:05:19;8.77;;;4.47;;
78005;SDS011;67211;42.146;24.756;2023-06-10T13:07:45;6.70;;;4.68;;
78005;SDS011;67211;42.146;24.756;2023-06-10T13:10:12;7.95;;;4.03;;
78005;SDS011;67211;42.146;24.756;2023-06-10T13:12:41;5.63;;;4.03;;
78005;SDS011;67211;42.146;24.756;2023-06-10T13:15:07;7.15;;;3.90;;
78005;SDS011;67211;42.146;24.756;2023-06-10T13:17:33;5.00;;;3.70;;
78005;SDS011;67211;42.146;24.756;2023-06-10T13:20:02;8.13;;;3.65;;
78005;SDS011;67211;42.146;24.756;2023-06-10T13:22:30;6.65;;;3.85;;
78005;SDS011;67211;42.146;24.756;2023-06-10T13:24:57;5.50;;;3.65;;
78005;SDS011;67211;42.146;24.756;2023-06-10T13:27:26;6.50;;;4.07;;
78005;SDS011;67211;42.146;24.756;2023-06-10T13:29:52;7.18;;;4.50;;
78005;SDS011;67211;42.146;24.756;2023-06-10T13:32:17;6.45;;;3.80;;
78005;SDS011;67211;42.146;24.756;2023-06-10T13:34:43;7.70;;;3.58;;
78005;SDS011;67211;42.146;24.756;2023-06-10T13:37:08;5.55;;;3.30;;
78005;SDS011;67211;42.146;24.756;2023-06-10T13:39:34;5.82;;;3.83;;
78005;SDS011;67211;42.146;24.756;2023-06-10T13:41:59;6.32;;;3.50;;
78005;SDS011;67211;42.146;24.756;2023-06-10T13:44:25;5.80;;;3.55;;
78005;SDS011;67211;42.146;24.756;2023-06-10T13:46:50;6.70;;;3.47;;
78005;SDS011;67211;42.146;24.756;2023-06-10T13:49:15;6.75;;;3.60;;
78005;SDS011;67211;42.146;24.756;2023-06-10T13:51:41;5.18;;;3.67;;
78005;SDS011;67211;42.146;24.756;2023-06-10T13:54:06;6.80;;;3.85;;
78005;SDS011;67211;42.146;24.756;2023-06-10T13:56:32;5.88;;;3.55;;
78005;SDS011;67211;42.146;24.756;2023-06-10T13:59:02;6.13;;;4.28;;
78005;SDS011;67211;42.146;24.756;2023-06-10T14:01:28;6.38;;;3.60;;
78005;SDS011;67211;42.146;24.756;2023-06-10T14:03:54;5.10;;;3.65;;
78005;SDS011;67211;42.146;24.756;2023-06-10T14:06:19;5.18;;;3.78;;
78005;SDS011;67211;42.146;24.756;2023-06-10T14:08:45;6.47;;;4.10;;
78005;SDS011;67211;42.146;24.756;2023-06-10T14:11:10;6.30;;;4.00;;
78005;SDS011;67211;42.146;24.756;2023-06-10T14:13:36;6.20;;;3.95;;
78005;SDS011;67211;42.146;24.756;2023-06-10T14:16:03;6.07;;;3.65;;
78005;SDS011;67211;42.146;24.756;2023-06-10T14:18:29;7.13;;;4.00;;
78005;SDS011;67211;42.146;24.756;2023-06-10T14:20:55;5.38;;;3.78;;
78005;SDS011;67211;42.146;24.756;2023-06-10T14:23:20;7.78;;;4.10;;
78005;SDS011;67211;42.146;24.756;2023-06-10T14:25:46;6.70;;;3.58;;
78005;SDS011;67211;42.146;24.756;2023-06-10T14:28:11;5.47;;;3.50;;
78005;SDS011;67211;42.146;24.756;2023-06-10T14:30:36;7.05;;;3.55;;
78005;SDS011;67211;42.146;24.756;2023-06-10T14:33:02;8.40;;;3.60;;
78005;SDS011;67211;42.146;24.756;2023-06-10T14:35:27;7.28;;;3.90;;
78005;SDS011;67211;42.146;24.756;2023-06-10T14:37:53;11.73;;;3.83;;
78005;SDS011;67211;42.146;24.756;2023-06-10T14:40:18;6.05;;;3.72;;
78005;SDS011;67211;42.146;24.756;2023-06-10T14:42:46;4.97;;;3.40;;
78005;SDS011;67211;42.146;24.756;2023-06-10T14:45:11;6.38;;;3.28;;
78005;SDS011;67211;42.146;24.756;2023-06-10T14:47:37;5.78;;;3.67;;
78005;SDS011;67211;42.146;24.756;2023-06-10T14:50:02;6.20;;;4.40;;
78005;SDS011;67211;42.146;24.756;2023-06-10T14:52:28;5.90;;;3.72;;